Flagstaff, Arizona
Current Conditions -  °F | °C
As of 4:57 AM on Thursday 27 Nov 2014 (Local Time) from KFLG Reporting Station
Clear Clear  
Wind Chill: -4°   Ceiling: Unl
Heat Index: -4°   Visibility: 10mi
Dew Point: -11°   Wind: 0mph
Humidity: 58%   Direction: NA
Pressure: 30.46"   Gusts: NA
Location:  35.2°N, 111.65°W
Report Text: KFLG 271157Z AUTO 00000KT 10SM CLR M04/M11 A3046 RMK AO2 SLP284 T10391111 11033 21061 56005 TSNO
Loading
Personal Weather Stations






























Interactive Weather Map New forecast layout! Learn more

10-Day Weather Forecast

Advertisements
Track Severe Weather on mobile